Time;durP1;ratioP1;P1;durP2;ratioP2;P2;SDS_P1;SDS_P2;PMS_P1;PMS_P2;Temp;Humidity;BMP_temperature;BMP_pressure;BME280_temperature;BME280_humidity;BME280_pressure;Samples;Min_cycle;Max_cycle;Signal;HPM_P1;HPM_P2
2023/04/23 00:01:40;;;;;;;2.10;1.90;;;21.50;73.40;;;;;;4937178;29;20501;-88
2023/04/23 00:04:08;;;;;;;2.30;2.03;;;21.50;73.40;;;;;;4920547;29;20927;-88
2023/04/23 00:06:36;;;;;;;1.73;1.63;;;21.50;73.40;;;;;;4937093;29;20457;-88
2023/04/23 00:09:06;;;;;;;2.57;2.00;;;21.50;73.30;;;;;;4937022;29;20467;-88
2023/04/23 00:11:34;;;;;;;2.60;2.30;;;21.40;73.30;;;;;;4937016;29;20506;-88
2023/04/23 00:14:01;;;;;;;2.10;2.00;;;21.50;73.30;;;;;;4937126;29;20446;-88
2023/04/23 00:16:29;;;;;;;2.00;1.90;;;21.40;73.30;;;;;;4936831;29;20439;-88
2023/04/23 00:18:55;;;;;;;2.40;2.20;;;21.50;73.30;;;;;;4936663;29;20455;-88
2023/04/23 00:21:22;;;;;;;1.60;1.50;;;21.50;73.40;;;;;;4936656;29;20494;-88
2023/04/23 00:23:49;;;;;;;2.10;2.00;;;21.40;73.20;;;;;;4919770;29;20785;-88
2023/04/23 00:26:18;;;;;;;2.07;1.97;;;21.40;73.20;;;;;;4936829;29;20446;-88
2023/04/23 00:28:45;;;;;;;2.17;2.07;;;21.40;73.10;;;;;;4936785;29;20499;-94
2023/04/23 00:31:12;;;;;;;1.90;1.80;;;21.40;73.10;;;;;;4935837;29;20821;-88
2023/04/23 00:33:38;;;;;;;2.40;2.00;;;21.40;73.20;;;;;;4917599;29;20458;-88
2023/04/23 00:36:06;;;;;;;2.20;2.00;;;21.40;73.20;;;;;;4917618;29;20448;-92
2023/04/23 00:38:33;;;;;;;1.90;1.80;;;21.40;73.20;;;;;;4917126;29;20472;-88
2023/04/23 00:41:00;;;;;;;2.60;2.40;;;21.40;73.20;;;;;;4917330;29;20502;-87
2023/04/23 00:43:28;;;;;;;2.80;1.87;;;21.40;73.20;;;;;;4917506;29;20660;-92
2023/04/23 00:45:55;;;;;;;2.00;1.90;;;21.50;73.30;;;;;;4917206;29;20474;-88
2023/04/23 00:48:22;;;;;;;1.93;1.83;;;21.40;73.30;;;;;;4917260;29;20444;-88
2023/04/23 00:50:50;;;;;;;2.60;2.37;;;21.40;73.30;;;;;;4917354;29;20448;-89
2023/04/23 00:53:16;;;;;;;2.13;1.93;;;21.40;73.20;;;;;;4900563;29;20889;-94
2023/04/23 00:55:44;;;;;;;2.20;2.00;;;21.40;73.20;;;;;;4917256;29;20452;-88
2023/04/23 00:58:11;;;;;;;2.00;1.53;;;21.50;73.30;;;;;;4917169;29;20447;-93
2023/04/23 01:00:47;;;;;;;1.93;1.80;;;21.40;73.20;;;;;;4900144;29;20471;-87
2023/04/23 01:03:15;;;;;;;2.57;2.37;;;21.40;73.20;;;;;;4917000;29;20493;-87
2023/04/23 01:05:43;;;;;;;2.10;2.00;;;21.40;73.20;;;;;;4917480;29;21018;-88
2023/04/23 01:08:14;;;;;;;2.10;1.90;;;21.40;73.20;;;;;;4917035;29;20450;-87
2023/04/23 01:10:41;;;;;;;2.07;1.90;;;21.40;73.30;;;;;;4917120;29;20470;-93
2023/04/23 01:13:08;;;;;;;2.17;2.07;;;21.40;73.30;;;;;;4917155;29;20449;-88
2023/04/23 01:15:35;;;;;;;1.90;1.80;;;21.40;73.20;;;;;;4917350;29;20440;-88
2023/04/23 01:18:06;;;;;;;2.70;2.50;;;21.30;73.10;;;;;;4917293;29;20526;-88
2023/04/23 01:20:34;;;;;;;2.57;2.37;;;21.30;73.10;;;;;;4931232;29;20443;-88
2023/04/23 01:23:02;;;;;;;1.83;1.73;;;21.30;73.20;;;;;;4917120;29;20519;-93
2023/04/23 01:25:29;;;;;;;1.90;1.80;;;21.30;73.10;;;;;;4900167;29;20452;-94
2023/04/23 01:27:57;;;;;;;2.60;2.40;;;21.30;73.20;;;;;;4900351;29;20448;-88
2023/04/23 01:30:25;;;;;;;2.13;2.03;;;21.30;73.10;;;;;;4900202;29;20582;-88
2023/04/23 01:32:54;;;;;;;1.90;1.80;;;21.30;73.20;;;;;;4917215;29;20846;-94
2023/04/23 01:35:21;;;;;;;2.07;1.90;;;21.40;73.30;;;;;;4900248;29;20940;-88
2023/04/23 01:37:50;;;;;;;1.97;1.87;;;21.30;73.20;;;;;;4916879;29;20451;-94
2023/04/23 01:40:19;;;;;;;2.00;1.90;;;21.30;73.10;;;;;;4916821;29;20471;-88
2023/04/23 01:42:47;;;;;;;3.00;2.70;;;21.50;73.30;;;;;;4917399;29;20490;-88
2023/04/23 01:45:14;;;;;;;2.47;2.27;;;21.30;73.10;;;;;;4920627;29;20486;-87
2023/04/23 01:47:41;;;;;;;2.37;2.17;;;21.30;73.10;;;;;;4920348;29;20959;-88
2023/04/23 01:50:09;;;;;;;2.87;2.20;;;21.30;73.10;;;;;;4920676;29;20494;-87
2023/04/23 01:52:36;;;;;;;2.33;2.13;;;21.30;73.10;;;;;;4888168;29;20507;-87
2023/04/23 01:55:04;;;;;;;2.30;2.10;;;21.30;73.10;;;;;;4903656;29;20439;-88
2023/04/23 01:57:32;;;;;;;2.40;2.20;;;21.30;73.20;;;;;;4920462;29;20447;-88
2023/04/23 02:00:05;;;;;;;2.87;2.20;;;21.30;73.20;;;;;;4903477;29;20448;-88
2023/04/23 02:02:32;;;;;;;2.43;2.23;;;21.30;73.10;;;;;;4919904;29;20499;-87
2023/04/23 02:05:03;;;;;;;2.37;2.20;;;21.30;73.10;;;;;;4920466;29;20459;-88
2023/04/23 02:07:31;;;;;;;2.10;1.90;;;21.30;73.20;;;;;;4903626;29;20543;-88
2023/04/23 02:09:58;;;;;;;2.37;2.13;;;21.30;73.10;;;;;;4920167;29;20468;-93
2023/04/23 02:12:25;;;;;;;2.10;1.90;;;21.30;73.10;;;;;;4920191;29;20941;-87
2023/04/23 02:14:54;;;;;;;2.20;2.00;;;21.30;73.20;;;;;;4920381;29;20443;-94
2023/04/23 02:17:21;;;;;;;2.13;2.03;;;21.30;73.10;;;;;;4920101;29;20447;-88
2023/04/23 02:19:48;;;;;;;2.60;2.40;;;21.30;73.10;;;;;;4920031;29;20459;-88
2023/04/23 02:22:16;;;;;;;2.07;1.97;;;21.30;73.10;;;;;;4919769;29;20494;-88
2023/04/23 02:24:43;;;;;;;1.80;1.70;;;21.30;73.10;;;;;;4902970;29;20491;-88
2023/04/23 02:27:10;;;;;;;1.80;1.70;;;21.30;73.20;;;;;;4919855;29;20458;-89
2023/04/23 02:29:37;;;;;;;2.37;2.17;;;21.30;73.20;;;;;;4919882;29;20538;-94
2023/04/23 02:32:06;;;;;;;1.80;1.70;;;21.30;73.20;;;;;;4902968;29;20936;-88
2023/04/23 02:34:33;;;;;;;2.20;2.00;;;21.30;73.20;;;;;;4919766;29;20452;-88
2023/04/23 02:37:00;;;;;;;1.97;1.87;;;21.20;73.00;;;;;;4919803;29;20454;-88
2023/04/23 02:39:27;;;;;;;2.10;2.00;;;21.30;73.20;;;;;;4919562;29;20470;-94
2023/04/23 02:41:55;;;;;;;2.07;1.87;;;21.20;73.00;;;;;;4902556;29;20487;-87
2023/04/23 02:44:21;;;;;;;2.10;2.00;;;21.20;73.10;;;;;;4919690;29;20466;-88
2023/04/23 02:46:48;;;;;;;2.10;2.00;;;21.20;73.00;;;;;;4919480;29;20448;-88
2023/04/23 02:49:16;;;;;;;2.13;1.93;;;21.20;73.00;;;;;;4919199;29;20543;-88
2023/04/23 02:51:43;;;;;;;1.93;1.83;;;21.20;73.10;;;;;;4919412;29;20452;-88
2023/04/23 02:54:10;;;;;;;2.20;2.00;;;21.20;73.10;;;;;;4918594;29;20450;-88
2023/04/23 02:56:37;;;;;;;1.80;1.70;;;21.20;73.00;;;;;;4919439;29;20452;-88
2023/04/23 02:59:05;;;;;;;2.00;1.90;;;21.20;73.10;;;;;;4919247;29;20454;-88
2023/04/23 03:01:32;;;;;;;2.10;1.90;;;21.20;73.10;;;;;;4919201;29;20582;-88
2023/04/23 03:03:59;;;;;;;1.93;1.83;;;21.20;73.00;;;;;;4917015;29;20480;-88
2023/04/23 03:06:27;;;;;;;2.30;2.10;;;21.20;73.10;;;;;;4919543;29;20459;-88
2023/04/23 03:08:54;;;;;;;2.30;2.10;;;21.20;73.10;;;;;;4919145;29;20463;-88
2023/04/23 03:11:22;;;;;;;1.60;1.50;;;21.20;73.10;;;;;;4919302;29;20472;-87
2023/04/23 03:13:49;;;;;;;2.07;1.97;;;21.20;73.10;;;;;;4919110;29;20854;-91
2023/04/23 03:16:16;;;;;;;1.73;1.63;;;21.20;73.00;;;;;;4919044;29;20476;-88
2023/04/23 03:18:42;;;;;;;1.80;1.70;;;21.20;73.90;;;;;;4918865;29;20849;-88
2023/04/23 03:21:09;;;;;;;1.90;1.80;;;21.30;73.20;;;;;;4918970;29;20452;-88
2023/04/23 03:23:38;;;;;;;2.20;2.07;;;21.20;73.10;;;;;;4902125;29;20450;-88
2023/04/23 03:26:05;;;;;;;2.10;1.90;;;21.20;73.10;;;;;;4918851;29;20448;-88
2023/04/23 03:28:32;;;;;;;1.90;1.80;;;21.20;73.10;;;;;;4918520;29;20448;-93
2023/04/23 03:30:58;;;;;;;1.80;1.70;;;21.20;73.10;;;;;;4918929;29;20456;-87
2023/04/23 03:33:25;;;;;;;1.80;1.70;;;21.20;73.00;;;;;;4918713;29;20451;-87
2023/04/23 03:35:52;;;;;;;1.80;1.70;;;21.20;73.20;;;;;;4918852;29;20804;-88
2023/04/23 03:38:19;;;;;;;1.80;1.53;;;21.20;73.10;;;;;;4901568;29;20519;-87
2023/04/23 03:40:48;;;;;;;2.13;1.93;;;21.20;73.00;;;;;;4901902;29;20490;-88
2023/04/23 03:43:15;;;;;;;1.80;1.70;;;21.20;73.10;;;;;;4918629;29;20518;-88
2023/04/23 03:45:41;;;;;;;2.00;1.90;;;21.20;73.10;;;;;;4918631;29;20454;-88
2023/04/23 03:48:08;;;;;;;1.80;1.70;;;21.20;73.10;;;;;;4918263;29;20444;-88
2023/04/23 03:50:39;;;;;;;1.90;1.80;;;21.20;73.10;;;;;;4901770;29;20452;-93
2023/04/23 03:53:06;;;;;;;1.90;1.80;;;21.20;73.10;;;;;;4902080;29;20447;-88
2023/04/23 03:55:32;;;;;;;2.13;2.03;;;21.10;73.00;;;;;;4918447;29;20526;-87
2023/04/23 03:58:01;;;;;;;2.27;2.17;;;21.20;73.10;;;;;;4918443;29;20454;-88
2023/04/23 04:00:28;;;;;;;2.20;1.70;;;21.10;73.00;;;;;;4918376;29;20454;-88
2023/04/23 04:02:55;;;;;;;2.03;1.83;;;21.10;73.00;;;;;;4917574;29;20499;-87
2023/04/23 04:05:23;;;;;;;1.90;1.80;;;21.10;73.00;;;;;;4918030;29;20450;-94
2023/04/23 04:07:50;;;;;;;1.87;1.77;;;21.10;73.00;;;;;;4917940;29;20465;-88
2023/04/23 04:10:16;;;;;;;2.10;2.00;;;21.10;73.10;;;;;;4917794;29;20476;-88
2023/04/23 04:12:46;;;;;;;2.00;1.90;;;21.10;73.00;;;;;;4917998;29;20447;-88
2023/04/23 04:15:15;;;;;;;2.17;2.07;;;21.10;73.00;;;;;;4917989;29;20444;-88
2023/04/23 04:17:44;;;;;;;1.97;1.87;;;21.10;73.10;;;;;;4918097;29;20936;-94
2023/04/23 04:20:12;;;;;;;1.70;1.60;;;21.10;73.10;;;;;;4917815;29;20936;-88
2023/04/23 04:22:39;;;;;;;2.00;1.90;;;21.10;73.10;;;;;;4917732;29;20495;-88
2023/04/23 04:25:08;;;;;;;1.80;1.70;;;21.10;73.10;;;;;;4917765;29;20531;-88
2023/04/23 04:27:36;;;;;;;1.97;1.87;;;21.10;73.10;;;;;;4917620;29;20464;-87
2023/04/23 04:30:04;;;;;;;1.70;1.60;;;21.30;73.30;;;;;;4900619;29;20452;-88
2023/04/23 04:32:33;;;;;;;1.50;1.40;;;21.10;73.00;;;;;;4932203;29;20462;-88
2023/04/23 04:34:59;;;;;;;1.83;1.73;;;21.10;73.00;;;;;;4901060;29;21018;-88
2023/04/23 04:37:26;;;;;;;2.20;2.10;;;21.10;73.90;;;;;;4917649;29;20450;-88
2023/04/23 04:39:53;;;;;;;1.63;1.53;;;21.10;73.10;;;;;;4917359;29;20463;-88
2023/04/23 04:42:20;;;;;;;1.90;1.80;;;21.10;73.10;;;;;;4917290;29;20490;-88
2023/04/23 04:44:47;;;;;;;1.77;1.67;;;21.10;73.00;;;;;;4917418;29;20454;-94
2023/04/23 04:47:15;;;;;;;2.00;1.90;;;21.10;73.10;;;;;;4917452;29;20471;-88
2023/04/23 04:49:43;;;;;;;1.60;1.50;;;21.10;73.10;;;;;;4917299;29;20503;-88
2023/04/23 04:52:10;;;;;;;1.80;1.70;;;21.10;73.10;;;;;;4917450;29;20783;-88
2023/04/23 04:54:37;;;;;;;1.97;1.87;;;21.10;73.10;;;;;;4917499;29;20454;-87
2023/04/23 04:57:05;;;;;;;1.63;1.53;;;21.10;73.20;;;;;;4917307;29;20453;-88
2023/04/23 04:59:32;;;;;;;1.90;1.70;;;21.10;73.10;;;;;;4917326;29;20796;-88
2023/04/23 05:01:59;;;;;;;1.80;1.70;;;21.10;73.10;;;;;;4917224;29;20472;-88
2023/04/23 05:04:26;;;;;;;1.77;1.67;;;21.10;73.10;;;;;;4900299;29;20500;-88
2023/04/23 05:06:55;;;;;;;1.80;1.70;;;21.10;73.20;;;;;;4917244;29;20861;-87
2023/04/23 05:09:22;;;;;;;3.37;1.67;;;21.10;73.20;;;;;;4916920;29;20471;-88
2023/04/23 05:11:49;;;;;;;2.20;2.00;;;21.10;73.20;;;;;;4900096;29;20443;-88
2023/04/23 05:14:16;;;;;;;1.80;1.70;;;21.00;73.10;;;;;;4917140;29;20479;-88
2023/04/23 05:16:43;;;;;;;2.27;2.07;;;21.10;73.20;;;;;;4917311;29;20578;-88
2023/04/23 05:19:10;;;;;;;1.70;1.60;;;21.00;73.10;;;;;;4916673;29;20459;-88
2023/04/23 05:21:37;;;;;;;1.50;1.40;;;21.00;73.00;;;;;;4917100;29;20439;-93
2023/04/23 05:24:05;;;;;;;1.53;1.43;;;21.00;73.10;;;;;;4916960;29;20538;-88
2023/04/23 05:26:32;;;;;;;1.70;1.60;;;21.00;73.10;;;;;;4917058;29;20482;-87
2023/04/23 05:28:59;;;;;;;1.50;1.40;;;21.00;73.10;;;;;;4917070;29;20452;-88
2023/04/23 05:31:26;;;;;;;1.60;1.50;;;21.00;73.10;;;;;;4916832;29;20452;-88
2023/04/23 05:33:53;;;;;;;1.93;1.83;;;21.00;73.10;;;;;;4917342;29;20459;-88
2023/04/23 05:36:20;;;;;;;1.70;1.50;;;21.00;73.10;;;;;;4916927;29;20444;-88
2023/04/23 05:38:47;;;;;;;1.97;1.87;;;21.00;73.20;;;;;;4917018;29;20471;-87
2023/04/23 05:41:16;;;;;;;1.60;1.50;;;21.00;73.10;;;;;;4917096;29;20986;-88
2023/04/23 05:43:43;;;;;;;2.03;1.83;;;21.00;73.20;;;;;;4899809;29;20480;-88
2023/04/23 05:48:51;;;;;;;1.60;1.50;;;21.00;73.20;;;;;;4910903;29;20535;-86
2023/04/23 05:51:18;;;;;;;1.47;1.37;;;21.00;73.10;;;;;;4916831;29;20966;-85
2023/04/23 05:53:44;;;;;;;2.27;2.07;;;21.00;72.80;;;;;;4916663;29;20534;-88
2023/04/23 05:56:11;;;;;;;1.60;1.50;;;21.00;72.50;;;;;;4916657;29;20451;-88
2023/04/23 05:58:39;;;;;;;1.90;1.80;;;21.00;72.80;;;;;;4916605;29;20800;-89
2023/04/23 06:01:06;;;;;;;1.63;1.53;;;21.00;72.80;;;;;;4916619;29;20458;-89
2023/04/23 06:03:33;;;;;;;2.17;2.00;;;21.00;72.80;;;;;;4919982;29;20490;-93
2023/04/23 06:06:00;;;;;;;2.13;1.93;;;21.00;72.90;;;;;;4935679;29;20461;-92
2023/04/23 06:08:26;;;;;;;1.60;1.50;;;21.00;72.90;;;;;;4936209;29;20481;-94
2023/04/23 06:10:54;;;;;;;2.53;1.50;;;21.00;72.90;;;;;;4936043;29;20545;-92
2023/04/23 06:13:21;;;;;;;1.50;1.40;;;21.00;73.00;;;;;;4935930;29;20455;-94
2023/04/23 06:15:49;;;;;;;2.13;1.60;;;21.00;73.00;;;;;;4935964;29;20811;-93
2023/04/23 06:18:16;;;;;;;1.47;1.37;;;21.00;73.00;;;;;;4935821;29;20493;-92
2023/04/23 06:20:43;;;;;;;1.67;1.57;;;21.10;73.20;;;;;;4935144;29;20446;-87
2023/04/23 06:23:11;;;;;;;1.47;1.37;;;21.00;73.10;;;;;;4934805;29;20542;-89
2023/04/23 06:25:37;;;;;;;1.83;1.60;;;21.00;73.10;;;;;;4936014;29;20446;-94
2023/04/23 06:28:04;;;;;;;2.07;1.97;;;21.00;73.10;;;;;;4935709;29;20446;-87
2023/04/23 06:30:31;;;;;;;1.47;1.37;;;21.10;73.10;;;;;;4937681;29;20447;-88
2023/04/23 06:32:59;;;;;;;1.70;1.60;;;21.10;73.00;;;;;;4939333;29;20502;-93
2023/04/23 06:35:26;;;;;;;1.97;1.70;;;21.10;73.00;;;;;;4939071;29;20443;-88
2023/04/23 06:37:53;;;;;;;1.70;1.60;;;21.10;72.80;;;;;;4939361;29;20537;-90
2023/04/23 06:40:19;;;;;;;2.00;1.80;;;21.10;72.80;;;;;;4938976;29;20469;-90
2023/04/23 06:42:46;;;;;;;1.73;1.60;;;21.10;72.90;;;;;;4939187;29;20470;-90
2023/04/23 06:45:14;;;;;;;1.93;1.60;;;21.10;72.90;;;;;;4939235;29;20539;-93
2023/04/23 06:47:40;;;;;;;6.43;1.60;;;21.20;73.10;;;;;;4938569;29;20529;-88
2023/04/23 06:50:09;;;;;;;3.33;2.03;;;21.30;73.20;;;;;;4938837;29;20950;-92
2023/04/23 06:52:36;;;;;;;3.10;1.60;;;21.20;73.30;;;;;;4938940;29;20455;-92
2023/04/23 06:55:03;;;;;;;1.70;1.60;;;21.20;73.50;;;;;;4938851;29;20453;-88
2023/04/23 06:57:30;;;;;;;3.13;2.10;;;21.20;73.60;;;;;;4938582;29;20447;-88
2023/04/23 06:59:57;;;;;;;3.80;1.93;;;21.20;73.80;;;;;;4938672;29;20850;-92
2023/04/23 07:02:23;;;;;;;5.23;2.23;;;21.20;73.70;;;;;;4938495;29;20780;-92
2023/04/23 07:04:50;;;;;;;2.10;1.90;;;21.20;73.80;;;;;;4938414;29;20435;-88
2023/04/23 07:07:18;;;;;;;3.47;2.40;;;21.20;73.70;;;;;;4938498;29;20486;-91
2023/04/23 07:09:45;;;;;;;1.80;1.70;;;21.20;73.60;;;;;;4938419;29;20962;-88
2023/04/23 07:12:12;;;;;;;2.90;1.77;;;21.20;73.50;;;;;;4938521;29;20453;-88
2023/04/23 07:14:39;;;;;;;1.93;1.73;;;21.20;73.40;;;;;;4938314;29;20450;-92
2023/04/23 07:17:07;;;;;;;2.30;2.10;;;21.20;73.30;;;;;;4936661;29;20487;-87
2023/04/23 07:19:33;;;;;;;4.47;2.40;;;21.20;73.00;;;;;;4937800;29;20439;-89
2023/04/23 07:22:00;;;;;;;3.83;2.00;;;21.30;73.10;;;;;;4938219;29;20798;-89
2023/04/23 07:24:28;;;;;;;3.70;2.40;;;21.30;73.10;;;;;;4937874;29;20581;-88
2023/04/23 07:26:55;;;;;;;7.23;2.80;;;21.20;72.90;;;;;;4937847;29;20461;-87
2023/04/23 07:29:22;;;;;;;2.43;2.13;;;21.30;71.80;;;;;;4936189;29;20439;-87
2023/04/23 07:31:49;;;;;;;12.70;1.97;;;21.30;71.30;;;;;;4937785;29;20457;-88
2023/04/23 07:34:16;;;;;;;1.70;1.60;;;21.30;70.70;;;;;;4937465;29;20940;-88
2023/04/23 07:36:42;;;;;;;3.10;1.97;;;21.20;70.30;;;;;;4937559;29;20953;-90
2023/04/23 07:39:09;;;;;;;2.53;1.83;;;21.30;70.40;;;;;;4938108;29;20481;-88
2023/04/23 07:41:39;;;;;;;2.03;1.80;;;21.30;70.40;;;;;;4937546;29;20455;-87
2023/04/23 07:44:06;;;;;;;3.13;1.93;;;21.30;71.40;;;;;;4937889;29;20499;-91
2023/04/23 07:46:33;;;;;;;2.30;2.10;;;21.30;71.90;;;;;;4936455;29;20446;-88
2023/04/23 07:49:00;;;;;;;3.13;1.93;;;21.30;72.60;;;;;;4936438;29;20443;-85
2023/04/23 07:51:27;;;;;;;3.40;2.17;;;21.40;73.00;;;;;;4937588;29;20501;-84
2023/04/23 07:53:55;;;;;;;4.57;2.10;;;21.30;72.10;;;;;;4937668;29;20455;-89
2023/04/23 07:56:23;;;;;;;3.27;2.30;;;21.40;72.40;;;;;;4937490;29;20450;-89
2023/04/23 07:58:52;;;;;;;3.97;1.80;;;21.30;73.20;;;;;;4937501;29;20503;-88
2023/04/23 08:01:20;;;;;;;3.93;2.37;;;21.40;73.50;;;;;;4937320;29;20490;-90
2023/04/23 08:03:47;;;;;;;3.20;1.80;;;21.40;73.70;;;;;;4937101;29;20502;-88
2023/04/23 08:06:14;;;;;;;3.40;2.30;;;21.40;73.80;;;;;;4936958;29;20448;-90
2023/04/23 08:08:40;;;;;;;2.40;2.20;;;21.50;74.00;;;;;;4936604;29;21053;-89
2023/04/23 08:11:08;;;;;;;3.93;2.73;;;21.50;74.10;;;;;;4937079;29;20475;-90
2023/04/23 08:13:34;;;;;;;3.10;2.07;;;21.60;74.20;;;;;;4936793;29;20457;-90
2023/04/23 08:16:03;;;;;;;3.57;2.50;;;21.60;74.30;;;;;;4936684;29;20447;-89
2023/04/23 08:18:30;;;;;;;6.30;2.30;;;21.50;74.30;;;;;;4937091;29;20443;-89
2023/04/23 08:20:57;;;;;;;2.20;2.00;;;21.60;74.40;;;;;;4936925;29;20453;-90
2023/04/23 08:23:24;;;;;;;4.70;2.40;;;21.60;74.60;;;;;;4936920;29;20479;-89
2023/04/23 08:25:51;;;;;;;8.20;2.50;;;21.60;74.70;;;;;;4937049;29;20454;-90
2023/04/23 08:28:18;;;;;;;3.33;2.00;;;21.70;74.90;;;;;;4936675;29;20462;-89
2023/04/23 08:30:45;;;;;;;2.13;1.70;;;21.70;75.00;;;;;;4936884;29;20451;-90
2023/04/23 08:33:14;;;;;;;3.77;2.43;;;21.70;75.00;;;;;;4936996;29;20473;-89
2023/04/23 08:35:41;;;;;;;2.23;1.83;;;21.70;75.10;;;;;;4936694;29;20538;-89
2023/04/23 08:38:08;;;;;;;4.13;2.07;;;21.90;75.40;;;;;;4936729;29;20479;-90
2023/04/23 08:40:36;;;;;;;2.63;2.43;;;21.80;75.40;;;;;;4936740;29;20482;-88
2023/04/23 08:43:10;;;;;;;4.80;2.37;;;21.80;75.40;;;;;;4936477;29;20451;-90
2023/04/23 08:45:40;;;;;;;2.30;2.07;;;21.90;75.60;;;;;;4936598;29;20447;-89
2023/04/23 08:48:08;;;;;;;2.33;1.90;;;21.90;75.50;;;;;;4936821;29;20474;-90
2023/04/23 08:50:38;;;;;;;2.47;1.70;;;21.90;75.50;;;;;;4936512;29;20872;-90
2023/04/23 08:53:07;;;;;;;2.63;2.20;;;21.90;75.50;;;;;;4935869;29;20441;-90
2023/04/23 08:55:35;;;;;;;2.40;2.20;;;22.00;75.80;;;;;;4936677;29;20450;-90
2023/04/23 08:58:05;;;;;;;2.20;2.00;;;22.00;75.80;;;;;;4936324;29;20437;-89
2023/04/23 09:00:33;;;;;;;2.63;2.43;;;22.00;75.90;;;;;;4936603;29;20451;-89
2023/04/23 09:03:00;;;;;;;3.40;1.80;;;22.10;76.00;;;;;;4936157;29;20516;-89
2023/04/23 09:05:27;;;;;;;4.10;3.20;;;22.10;75.80;;;;;;4936289;29;20451;-90
2023/04/23 09:07:57;;;;;;;2.47;2.27;;;22.10;75.70;;;;;;4936289;29;20816;-90
2023/04/23 09:10:24;;;;;;;2.13;1.97;;;22.20;75.70;;;;;;4936219;29;20481;-90
2023/04/23 09:12:51;;;;;;;2.23;2.03;;;22.20;75.70;;;;;;4936178;29;20533;-89
2023/04/23 09:15:18;;;;;;;3.83;1.97;;;22.20;75.70;;;;;;4936170;29;20443;-89
2023/04/23 09:17:47;;;;;;;1.93;1.80;;;22.10;75.80;;;;;;4936246;29;20443;-88
2023/04/23 09:20:14;;;;;;;3.03;1.70;;;22.20;75.80;;;;;;4936097;29;20454;-89
2023/04/23 09:22:42;;;;;;;2.07;1.67;;;22.20;75.70;;;;;;4936422;29;20441;-89
2023/04/23 09:25:12;;;;;;;2.80;1.87;;;22.20;75.80;;;;;;4936226;29;20502;-90
2023/04/23 09:27:39;;;;;;;1.77;1.63;;;22.20;76.20;;;;;;4936217;29;20986;-89
2023/04/23 09:30:08;;;;;;;1.97;1.77;;;22.20;75.80;;;;;;4936328;29;20481;-90
2023/04/23 09:32:36;;;;;;;2.47;1.80;;;22.30;75.80;;;;;;4936182;29;20490;-89
2023/04/23 09:35:04;;;;;;;2.07;1.77;;;22.40;76.00;;;;;;4936148;29;20459;-89
2023/04/23 09:37:31;;;;;;;3.03;2.03;;;22.20;75.60;;;;;;4936118;29;20443;-89
2023/04/23 09:40:03;;;;;;;3.07;1.80;;;22.20;75.60;;;;;;4936067;29;20471;-89
2023/04/23 09:42:32;;;;;;;2.67;1.90;;;22.30;75.70;;;;;;4936202;29;20454;-89
2023/04/23 09:45:03;;;;;;;2.20;1.83;;;22.30;75.70;;;;;;4935695;29;20491;-88
2023/04/23 09:47:32;;;;;;;3.50;1.97;;;22.30;75.80;;;;;;4935869;29;20990;-89
2023/04/23 09:50:00;;;;;;;1.70;1.60;;;22.40;76.10;;;;;;4935888;29;20447;-89
2023/04/23 09:52:28;;;;;;;2.03;1.80;;;22.40;76.10;;;;;;4935918;29;20455;-89
2023/04/23 09:54:57;;;;;;;1.83;1.50;;;22.40;75.80;;;;;;4936024;29;20447;-91
2023/04/23 09:57:25;;;;;;;3.03;2.00;;;22.40;75.70;;;;;;4935711;29;20446;-89
2023/04/23 09:59:53;;;;;;;3.00;2.10;;;22.40;75.70;;;;;;4936037;29;20811;-89
2023/04/23 10:02:20;;;;;;;2.80;1.80;;;22.30;75.80;;;;;;4935640;29;20965;-90
2023/04/23 10:04:52;;;;;;;2.03;1.83;;;22.30;75.80;;;;;;4938007;29;20494;-90
2023/04/23 10:07:19;;;;;;;2.00;1.80;;;22.30;75.90;;;;;;4939370;29;20506;-89
2023/04/23 10:09:46;;;;;;;2.00;1.83;;;22.30;76.10;;;;;;4939401;29;20475;-89
2023/04/23 10:12:14;;;;;;;2.13;1.60;;;22.40;76.30;;;;;;4939215;29;20550;-89
2023/04/23 10:14:43;;;;;;;1.93;1.73;;;22.40;76.40;;;;;;4939390;29;20458;-89
2023/04/23 10:17:12;;;;;;;2.07;1.43;;;22.40;76.40;;;;;;4939386;29;20447;-90
2023/04/23 10:19:41;;;;;;;1.67;1.50;;;22.40;76.30;;;;;;4939449;29;20453;-90
2023/04/23 10:22:10;;;;;;;1.87;1.40;;;22.40;76.20;;;;;;4939284;29;20486;-90
2023/04/23 10:24:40;;;;;;;3.20;1.80;;;22.50;76.20;;;;;;4939270;29;20490;-89
2023/04/23 10:27:15;;;;;;;2.00;1.50;;;22.50;76.20;;;;;;4939213;29;20550;-90
2023/04/23 10:29:43;;;;;;;1.90;1.80;;;22.40;76.10;;;;;;4939017;29;20505;-89
2023/04/23 10:32:12;;;;;;;1.70;1.40;;;22.40;76.00;;;;;;4938930;29;20446;-90
2023/04/23 10:34:40;;;;;;;2.00;1.80;;;22.40;76.00;;;;;;4939389;29;20450;-90
2023/04/23 10:37:07;;;;;;;1.80;1.70;;;22.40;76.00;;;;;;4939542;29;20451;-90
2023/04/23 10:39:35;;;;;;;1.93;1.80;;;22.40;76.00;;;;;;4938725;29;20474;-89
2023/04/23 10:42:03;;;;;;;1.70;1.60;;;22.40;76.00;;;;;;4938989;29;20446;-89
2023/04/23 10:44:36;;;;;;;2.53;2.00;;;22.40;76.00;;;;;;4938693;29;20487;-90
2023/04/23 10:47:03;;;;;;;2.10;1.60;;;22.40;76.00;;;;;;4938600;29;20547;-88
2023/04/23 10:49:33;;;;;;;2.77;1.97;;;22.40;76.90;;;;;;4938600;29;20965;-89
2023/04/23 10:52:01;;;;;;;1.60;1.37;;;22.40;76.10;;;;;;4938824;29;20439;-90
2023/04/23 10:54:30;;;;;;;1.50;1.40;;;22.40;76.10;;;;;;4938223;29;20506;-90
2023/04/23 10:57:00;;;;;;;2.87;1.70;;;22.40;76.10;;;;;;4938762;29;20451;-89
2023/04/23 10:59:29;;;;;;;1.70;1.60;;;22.40;76.20;;;;;;4938720;29;20502;-89
2023/04/23 11:01:58;;;;;;;2.90;1.90;;;22.40;76.20;;;;;;4938778;29;20462;-90
2023/04/23 11:04:27;;;;;;;1.63;1.53;;;22.60;76.50;;;;;;4938318;29;20503;-90
2023/04/23 11:06:57;;;;;;;1.93;1.60;;;22.40;76.20;;;;;;4938402;29;20458;-89
2023/04/23 11:09:31;;;;;;;1.70;1.43;;;22.40;76.40;;;;;;4937990;29;20477;-89
2023/04/23 11:11:58;;;;;;;1.57;1.20;;;22.40;76.40;;;;;;4938662;29;20793;-88
2023/04/23 11:14:36;;;;;;;3.10;1.40;;;22.50;76.40;;;;;;4938481;29;20474;-89
2023/04/23 11:17:04;;;;;;;1.40;1.30;;;22.50;76.40;;;;;;4937496;29;20813;-90
2023/04/23 11:19:31;;;;;;;3.00;1.50;;;22.40;76.30;;;;;;4938520;29;20447;-89
2023/04/23 11:22:06;;;;;;;1.60;1.50;;;22.50;76.30;;;;;;4938753;29;20453;-90
2023/04/23 11:24:40;;;;;;;2.57;1.90;;;22.50;76.20;;;;;;4938338;29;20482;-89
2023/04/23 11:27:09;;;;;;;1.50;1.40;;;22.40;76.20;;;;;;4938225;29;20538;-90
2023/04/23 11:29:37;;;;;;;1.43;1.33;;;22.40;76.20;;;;;;4937798;29;20934;-89
2023/04/23 11:32:09;;;;;;;1.60;1.50;;;22.40;76.10;;;;;;4938070;29;20458;-89
2023/04/23 11:34:36;;;;;;;1.43;1.30;;;22.40;76.10;;;;;;4938017;29;20431;-90
2023/04/23 11:37:05;;;;;;;1.73;1.47;;;22.20;75.80;;;;;;4937847;29;20534;-89
2023/04/23 11:39:32;;;;;;;1.90;1.60;;;22.40;76.10;;;;;;4937565;29;21053;-89
2023/04/23 11:42:01;;;;;;;1.90;1.30;;;22.30;76.00;;;;;;4937887;29;20458;-90
2023/04/23 11:44:29;;;;;;;1.33;1.23;;;22.30;76.10;;;;;;4937464;29;20486;-90
2023/04/23 11:46:56;;;;;;;1.60;1.50;;;22.30;76.10;;;;;;4937510;29;20989;-89
2023/04/23 11:49:22;;;;;;;1.77;1.53;;;22.30;76.10;;;;;;4937789;29;20538;-89
2023/04/23 11:51:50;;;;;;;1.50;1.30;;;22.30;76.10;;;;;;4937711;29;20486;-90
2023/04/23 11:54:18;;;;;;;1.80;1.20;;;22.30;76.10;;;;;;4937663;29;20510;-90
2023/04/23 11:56:45;;;;;;;1.40;1.30;;;22.30;76.00;;;;;;4937733;29;21018;-89
2023/04/23 11:59:12;;;;;;;1.90;1.37;;;22.30;76.10;;;;;;4937905;29;20443;-89
2023/04/23 12:01:47;;;;;;;1.60;1.20;;;22.30;76.10;;;;;;4937302;29;20447;-89
2023/04/23 12:04:16;;;;;;;2.03;1.40;;;22.30;76.10;;;;;;4937137;29;20500;-89
2023/04/23 12:06:45;;;;;;;1.73;1.43;;;22.40;76.30;;;;;;4937547;29;20451;-89
2023/04/23 12:09:14;;;;;;;1.40;1.30;;;22.20;76.00;;;;;;4936921;29;20479;-90
2023/04/23 12:11:43;;;;;;;2.00;1.80;;;22.30;76.30;;;;;;4937508;29;20472;-89
2023/04/23 12:14:11;;;;;;;1.50;1.30;;;22.20;76.20;;;;;;4937525;29;20450;-89
2023/04/23 12:16:40;;;;;;;1.40;1.30;;;22.20;76.20;;;;;;4937192;29;20783;-90
2023/04/23 12:19:12;;;;;;;8.17;1.60;;;22.20;76.20;;;;;;4937323;29;20850;-90
2023/04/23 12:21:52;;;;;;;1.53;1.33;;;22.20;76.10;;;;;;4937139;29;20997;-91
2023/04/23 12:24:19;;;;;;;1.40;1.30;;;22.20;76.20;;;;;;4936825;29;20482;-90
2023/04/23 12:26:49;;;;;;;1.30;1.20;;;22.40;76.50;;;;;;4936971;29;20458;-90
2023/04/23 12:29:18;;;;;;;3.10;1.60;;;22.20;76.20;;;;;;4936978;29;20470;-89
2023/04/23 12:31:45;;;;;;;1.70;1.40;;;22.20;76.20;;;;;;4937079;29;20521;-89
2023/04/23 12:34:15;;;;;;;1.97;1.53;;;22.20;76.20;;;;;;4936884;29;20443;-90
2023/04/23 12:36:45;;;;;;;1.90;1.40;;;22.20;76.20;;;;;;4937081;29;20443;-89
2023/04/23 12:39:20;;;;;;;1.50;1.40;;;22.20;76.30;;;;;;4937005;29;20463;-90
2023/04/23 12:41:49;;;;;;;1.73;1.53;;;22.30;76.40;;;;;;4936910;29;20450;-89
2023/04/23 12:44:15;;;;;;;1.57;1.40;;;22.30;76.20;;;;;;4936781;29;20454;-90
2023/04/23 12:46:42;;;;;;;1.87;1.30;;;22.30;76.90;;;;;;4936741;29;20946;-89
2023/04/23 12:49:09;;;;;;;1.57;1.03;;;22.30;76.10;;;;;;4936613;29;20957;-91
2023/04/23 12:51:36;;;;;;;1.30;1.20;;;22.50;76.30;;;;;;4936679;29;20450;-90
2023/04/23 12:54:04;;;;;;;2.33;1.23;;;22.30;76.20;;;;;;4936711;29;20451;-89